createdAt,value
2023-05-14T00:02:14.428Z,7.95
2023-05-14T00:04:41.722Z,7.50
2023-05-14T00:07:08.932Z,7.93
2023-05-14T00:09:36.539Z,8.35
2023-05-14T00:12:03.824Z,8.50
2023-05-14T00:14:31.321Z,7.38
2023-05-14T00:16:59.616Z,7.50
2023-05-14T00:19:27.065Z,8.48
2023-05-14T00:21:54.219Z,7.30
2023-05-14T00:24:21.375Z,9.02
2023-05-14T00:26:48.517Z,7.00
2023-05-14T00:29:16.011Z,7.90
2023-05-14T00:31:43.214Z,7.65
2023-05-14T00:34:10.526Z,6.97
2023-05-14T00:36:37.827Z,7.40
2023-05-14T00:39:05.073Z,6.97
2023-05-14T00:41:32.244Z,7.20
2023-05-14T00:43:59.408Z,6.80
2023-05-14T00:46:26.710Z,7.47
2023-05-14T00:48:54.291Z,7.85
2023-05-14T00:51:21.521Z,6.80
2023-05-14T00:53:49.264Z,7.55
2023-05-14T00:56:16.679Z,7.43
2023-05-14T00:58:43.837Z,6.93
2023-05-14T01:01:12.191Z,7.70
2023-05-14T01:03:39.619Z,6.65
2023-05-14T01:06:19.240Z,7.55
2023-05-14T01:08:58.841Z,7.22
2023-05-14T01:11:38.115Z,7.07
2023-05-14T01:14:18.837Z,6.55
2023-05-14T01:16:46.861Z,6.72
2023-05-14T01:19:23.302Z,7.25
2023-05-14T01:21:50.460Z,6.30
2023-05-14T01:24:17.621Z,6.78
2023-05-14T01:26:44.807Z,7.20
2023-05-14T01:29:16.748Z,6.50
2023-05-14T01:31:44.853Z,6.38
2023-05-14T01:34:12.613Z,7.25
2023-05-14T01:36:40.393Z,6.15
2023-05-14T01:39:11.559Z,7.03
2023-05-14T01:41:42.285Z,6.45
2023-05-14T01:44:12.800Z,7.00
2023-05-14T01:46:39.984Z,6.68
2023-05-14T01:49:07.206Z,7.05
2023-05-14T01:51:34.476Z,7.03
2023-05-14T01:54:01.735Z,6.57
2023-05-14T01:56:28.875Z,6.10
2023-05-14T01:58:56.843Z,6.70
2023-05-14T02:01:26.044Z,7.10
2023-05-14T02:03:53.290Z,6.03
2023-05-14T02:06:20.536Z,5.90
2023-05-14T02:08:47.709Z,6.32
2023-05-14T02:11:14.868Z,6.00
2023-05-14T02:13:42.090Z,6.40
2023-05-14T02:16:09.469Z,6.30
2023-05-14T02:18:36.757Z,5.90
2023-05-14T02:21:03.939Z,6.50
2023-05-14T02:23:40.438Z,6.25
2023-05-14T02:26:09.895Z,5.70
2023-05-14T02:28:37.338Z,6.55
2023-05-14T02:31:04.567Z,6.05
2023-05-14T02:33:31.796Z,5.72
2023-05-14T02:35:58.997Z,6.00
2023-05-14T02:38:27.330Z,6.22
2023-05-14T02:40:54.514Z,6.32
2023-05-14T02:43:21.693Z,6.38
2023-05-14T02:45:48.873Z,6.13
2023-05-14T02:48:16.052Z,5.85
2023-05-14T02:50:43.192Z,5.65
2023-05-14T02:53:10.433Z,5.82
2023-05-14T02:55:37.611Z,5.95
2023-05-14T02:58:04.792Z,6.18
2023-05-14T03:00:32.008Z,6.65
2023-05-14T03:02:59.799Z,6.07
2023-05-14T03:05:27.368Z,5.30
2023-05-14T03:07:54.804Z,5.85
2023-05-14T03:10:22.250Z,6.32
2023-05-14T03:12:49.637Z,5.47
2023-05-14T03:15:16.819Z,5.38
2023-05-14T03:17:44.014Z,6.22
2023-05-14T03:20:11.623Z,5.93
2023-05-14T03:22:38.805Z,6.47
2023-05-14T03:25:06.315Z,5.70
2023-05-14T03:27:34.575Z,5.50
2023-05-14T03:30:01.869Z,6.07
2023-05-14T03:32:30.814Z,5.72
2023-05-14T03:34:58.049Z,5.78
2023-05-14T03:37:25.226Z,4.95
2023-05-14T03:39:52.375Z,6.20
2023-05-14T03:42:19.505Z,5.82
2023-05-14T03:44:46.686Z,5.40
2023-05-14T03:47:13.861Z,5.47
2023-05-14T03:49:41.438Z,5.32
2023-05-14T03:52:08.659Z,5.43
2023-05-14T03:54:35.863Z,5.30
2023-05-14T03:57:03.072Z,5.35
2023-05-14T03:59:30.440Z,4.93
2023-05-14T04:01:57.586Z,5.65
2023-05-14T04:04:24.842Z,5.45
2023-05-14T04:06:55.287Z,4.85
2023-05-14T04:09:23.667Z,5.25
2023-05-14T04:11:51.062Z,5.65
2023-05-14T04:14:18.210Z,5.95
2023-05-14T04:16:45.475Z,5.20
2023-05-14T04:19:12.850Z,5.30
2023-05-14T04:21:40.165Z,5.40
2023-05-14T04:24:07.505Z,5.95
2023-05-14T04:26:35.280Z,4.88
2023-05-14T04:29:03.438Z,4.80
2023-05-14T04:31:31.694Z,5.35
2023-05-14T04:33:58.913Z,4.93
2023-05-14T04:36:26.317Z,4.50
2023-05-14T04:38:53.675Z,5.15
2023-05-14T04:41:21.115Z,5.15
2023-05-14T04:43:50.774Z,4.80
2023-05-14T04:46:17.992Z,4.93
2023-05-14T04:48:45.192Z,5.30
2023-05-14T04:51:12.349Z,5.10
2023-05-14T04:53:39.527Z,4.70
2023-05-14T04:56:06.770Z,4.68
2023-05-14T04:58:35.203Z,5.38
2023-05-14T05:01:03.931Z,4.90
2023-05-14T05:03:31.238Z,5.28
2023-05-14T05:05:58.472Z,4.78
2023-05-14T05:08:25.643Z,4.70
2023-05-14T05:10:53.280Z,4.40
2023-05-14T05:13:20.482Z,5.13
2023-05-14T05:15:47.703Z,4.53
2023-05-14T05:18:14.930Z,4.00
2023-05-14T05:20:42.092Z,5.45
2023-05-14T05:23:09.265Z,4.22
2023-05-14T05:25:36.475Z,4.95
2023-05-14T05:28:03.677Z,4.55
2023-05-14T05:30:30.909Z,4.40
2023-05-14T05:32:58.290Z,4.40
2023-05-14T05:35:25.752Z,4.80
2023-05-14T05:37:52.904Z,4.38
2023-05-14T05:40:20.123Z,4.43
2023-05-14T05:42:47.271Z,4.15
2023-05-14T05:45:14.509Z,3.72
2023-05-14T05:47:41.752Z,3.90
2023-05-14T05:50:09.754Z,4.22
2023-05-14T05:52:37.023Z,4.68
2023-05-14T05:55:04.328Z,3.90
2023-05-14T05:57:31.516Z,4.78
2023-05-14T05:59:58.791Z,4.30
2023-05-14T06:02:26.682Z,4.40
2023-05-14T06:04:54.057Z,4.10
2023-05-14T06:07:21.370Z,4.22
2023-05-14T06:09:48.520Z,4.57
2023-05-14T06:12:16.116Z,4.45
2023-05-14T06:14:43.291Z,3.95
2023-05-14T06:17:10.468Z,4.40
2023-05-14T06:19:37.655Z,4.20
2023-05-14T06:22:04.862Z,4.40
2023-05-14T06:24:32.058Z,4.30
2023-05-14T06:26:59.207Z,4.30
2023-05-14T06:29:26.524Z,4.18
2023-05-14T06:31:53.958Z,3.83
2023-05-14T06:34:21.168Z,3.97
2023-05-14T06:36:48.326Z,4.38
2023-05-14T06:39:15.538Z,4.28
2023-05-14T06:41:42.748Z,4.90
2023-05-14T06:44:09.942Z,4.32
2023-05-14T06:46:37.580Z,4.97
2023-05-14T06:49:05.242Z,4.38
2023-05-14T06:51:32.601Z,4.45
2023-05-14T06:53:59.750Z,4.32
2023-05-14T06:56:26.855Z,4.85
2023-05-14T06:58:54.012Z,4.18
2023-05-14T07:01:21.244Z,4.85
2023-05-14T07:03:48.499Z,3.92
2023-05-14T07:06:15.911Z,3.90
2023-05-14T07:08:45.862Z,4.20
2023-05-14T07:11:16.308Z,3.92
2023-05-14T07:13:43.646Z,4.57
2023-05-14T07:16:10.810Z,3.90
2023-05-14T07:18:38.015Z,3.92
2023-05-14T07:21:06.533Z,4.10
2023-05-14T07:23:36.206Z,3.58
2023-05-14T07:26:03.699Z,4.00
2023-05-14T07:28:30.994Z,4.25
2023-05-14T07:30:58.252Z,3.90
2023-05-14T07:33:25.514Z,3.65
2023-05-14T07:35:52.857Z,3.83
2023-05-14T07:38:20.326Z,4.10
2023-05-14T07:40:47.518Z,3.88
2023-05-14T07:43:14.749Z,3.40
2023-05-14T07:45:42.035Z,3.30
2023-05-14T07:48:09.364Z,3.85
2023-05-14T07:50:37.560Z,3.80
2023-05-14T07:53:04.733Z,4.10
2023-05-14T07:55:31.926Z,4.10
2023-05-14T07:57:59.149Z,3.67
2023-05-14T08:00:26.635Z,3.63
2023-05-14T08:02:54.194Z,4.57
2023-05-14T08:05:21.615Z,4.10
2023-05-14T08:07:48.833Z,4.20
2023-05-14T08:10:16.048Z,3.60
2023-05-14T08:12:43.247Z,4.25
2023-05-14T08:15:10.650Z,4.60
2023-05-14T08:17:37.887Z,4.50
2023-05-14T08:20:06.675Z,4.25
2023-05-14T08:22:33.951Z,4.20
2023-05-14T08:25:02.986Z,4.43
2023-05-14T08:27:30.248Z,4.00
2023-05-14T08:29:57.617Z,4.22
2023-05-14T08:32:24.777Z,4.75
2023-05-14T08:34:52.369Z,4.07
2023-05-14T08:37:19.740Z,4.43
2023-05-14T08:39:46.909Z,4.20
2023-05-14T08:42:14.283Z,4.35
2023-05-14T08:44:54.001Z,4.00
2023-05-14T08:47:22.889Z,4.13
2023-05-14T08:49:55.644Z,3.90
2023-05-14T08:52:23.276Z,4.10
2023-05-14T08:54:51.996Z,4.28
2023-05-14T08:57:19.475Z,3.90
2023-05-14T08:59:47.277Z,4.03
2023-05-14T09:02:16.921Z,4.00
2023-05-14T09:04:44.300Z,4.72
2023-05-14T09:07:11.508Z,4.60
2023-05-14T09:09:39.099Z,4.35
2023-05-14T09:12:06.923Z,4.40
2023-05-14T09:14:34.302Z,4.47
2023-05-14T09:17:01.734Z,4.20
2023-05-14T09:19:28.926Z,4.35
2023-05-14T09:21:58.355Z,4.20
2023-05-14T09:24:26.835Z,4.38
2023-05-14T09:26:55.273Z,4.22
2023-05-14T09:29:25.011Z,4.82
2023-05-14T09:31:52.536Z,4.45
2023-05-14T09:34:26.596Z,4.32
2023-05-14T09:36:59.601Z,4.40
2023-05-14T09:39:27.131Z,4.10
2023-05-14T09:41:54.746Z,4.82
2023-05-14T09:44:22.637Z,5.15
2023-05-14T09:46:50.848Z,5.03
2023-05-14T09:49:18.166Z,5.00
2023-05-14T09:51:45.633Z,5.10
2023-05-14T09:54:12.948Z,4.68
2023-05-14T09:56:40.293Z,4.72
2023-05-14T09:59:07.487Z,4.45
2023-05-14T10:01:35.030Z,5.05
2023-05-14T10:04:04.556Z,4.55
2023-05-14T10:06:33.641Z,4.40
2023-05-14T10:09:05.682Z,5.03
2023-05-14T10:11:35.013Z,5.15
2023-05-14T10:14:05.324Z,4.80
2023-05-14T10:16:34.789Z,4.35
2023-05-14T10:19:07.069Z,4.35
2023-05-14T10:21:35.889Z,4.78
2023-05-14T10:24:04.880Z,4.75
2023-05-14T10:26:39.026Z,4.03
2023-05-14T10:29:06.800Z,4.15
2023-05-14T10:31:49.366Z,4.15
2023-05-14T10:34:41.170Z,4.30
2023-05-14T10:37:08.665Z,4.15
2023-05-14T10:39:42.498Z,4.57
2023-05-14T10:42:11.886Z,4.25
2023-05-14T10:44:41.795Z,5.05
2023-05-14T10:47:08.978Z,5.10
2023-05-14T10:49:43.037Z,4.85
2023-05-14T10:52:11.959Z,5.18
2023-05-14T10:54:39.882Z,4.70
2023-05-14T10:57:11.859Z,5.50
2023-05-14T10:59:41.723Z,5.30
2023-05-14T11:02:19.470Z,5.43
2023-05-14T11:04:53.340Z,6.03
2023-05-14T11:07:24.398Z,5.72
2023-05-14T11:09:52.565Z,10.07
2023-05-14T11:12:20.025Z,13.38
2023-05-14T11:14:47.912Z,18.25
2023-05-14T11:17:15.726Z,18.35
2023-05-14T11:19:44.766Z,19.60
2023-05-14T11:22:13.764Z,18.80
2023-05-14T11:24:41.309Z,19.15
2023-05-14T11:27:09.503Z,20.10
2023-05-14T11:29:37.621Z,19.58
2023-05-14T11:32:06.554Z,19.48
2023-05-14T11:34:37.412Z,17.63
2023-05-14T11:37:05.447Z,17.55
2023-05-14T11:39:33.107Z,15.35
2023-05-14T11:42:00.633Z,15.50
2023-05-14T11:44:27.836Z,16.90
2023-05-14T11:46:58.404Z,16.15
2023-05-14T11:49:26.045Z,16.33
2023-05-14T11:52:03.024Z,16.40
2023-05-14T11:54:30.414Z,16.05
2023-05-14T11:56:58.454Z,16.60
2023-05-14T11:59:29.261Z,16.83
2023-05-14T12:01:56.532Z,15.73
2023-05-14T12:04:23.849Z,15.18
2023-05-14T12:06:51.921Z,14.18
2023-05-14T12:11:53.622Z,15.30
2023-05-14T12:14:21.782Z,15.45
2023-05-14T12:16:49.253Z,13.10
2023-05-14T12:19:17.310Z,13.80
2023-05-14T12:21:45.333Z,14.25
2023-05-14T12:24:17.473Z,12.48
2023-05-14T12:26:47.944Z,12.30
2023-05-14T12:29:16.354Z,12.30
2023-05-14T12:31:47.339Z,12.02
2023-05-14T12:34:14.633Z,11.77
2023-05-14T12:36:41.966Z,11.13
2023-05-14T12:39:09.688Z,11.73
2023-05-14T12:41:36.888Z,10.65
2023-05-14T12:44:05.026Z,10.18
2023-05-14T12:46:33.170Z,9.73
2023-05-14T12:49:00.601Z,10.38
2023-05-14T12:51:27.922Z,10.85
2023-05-14T12:53:55.178Z,11.13
2023-05-14T12:56:27.705Z,9.05
2023-05-14T12:58:56.075Z,8.32
2023-05-14T13:01:23.763Z,8.00
2023-05-14T13:03:51.129Z,9.73
2023-05-14T13:06:18.342Z,9.10
2023-05-14T13:08:45.721Z,7.97
2023-05-14T13:11:12.932Z,9.23
2023-05-14T13:13:40.094Z,8.15
2023-05-14T13:16:07.443Z,7.57
2023-05-14T13:18:34.713Z,8.00
2023-05-14T13:21:04.294Z,7.80
2023-05-14T13:23:31.458Z,6.68
2023-05-14T13:25:58.591Z,7.38
2023-05-14T13:28:25.799Z,8.32
2023-05-14T13:31:08.294Z,7.70
2023-05-14T13:33:39.468Z,7.40
2023-05-14T13:36:06.830Z,7.85
2023-05-14T13:38:34.020Z,8.10
2023-05-14T13:41:04.156Z,8.13
2023-05-14T13:43:32.087Z,8.23
2023-05-14T13:45:59.570Z,8.25
2023-05-14T13:48:27.616Z,7.78
2023-05-14T13:50:55.082Z,7.15
2023-05-14T13:53:23.018Z,8.30
2023-05-14T13:55:50.433Z,8.48
2023-05-14T13:58:17.875Z,8.50
2023-05-14T14:00:45.092Z,8.15
2023-05-14T14:03:12.240Z,8.52
2023-05-14T14:05:39.465Z,8.63
2023-05-14T14:08:22.127Z,8.27
2023-05-14T14:10:50.913Z,8.10
2023-05-14T14:13:18.079Z,7.55
2023-05-14T14:15:45.268Z,7.18
2023-05-14T14:18:12.425Z,7.85
2023-05-14T14:20:39.581Z,7.82
2023-05-14T14:23:08.355Z,7.40
2023-05-14T14:25:35.595Z,8.18
2023-05-14T14:28:02.741Z,7.85
2023-05-14T14:30:29.979Z,7.65
2023-05-14T14:32:57.196Z,7.40
2023-05-14T14:35:24.638Z,7.57
2023-05-14T14:37:55.729Z,7.55
2023-05-14T14:40:24.040Z,7.88
2023-05-14T14:42:51.309Z,8.18
2023-05-14T14:45:18.608Z,7.65
2023-05-14T14:47:46.527Z,7.38
2023-05-14T14:50:14.107Z,7.55
2023-05-14T14:52:45.435Z,7.60
2023-05-14T14:55:13.150Z,7.35
2023-05-14T14:57:40.338Z,8.35
2023-05-14T15:00:07.953Z,7.80
2023-05-14T15:02:35.398Z,7.68
2023-05-14T15:05:02.641Z,7.22
2023-05-14T15:07:32.829Z,8.65
2023-05-14T15:10:00.276Z,8.65
2023-05-14T15:12:27.550Z,8.70
2023-05-14T15:14:54.871Z,7.55
2023-05-14T15:17:22.944Z,8.50
2023-05-14T15:19:50.173Z,8.40
2023-05-14T15:22:17.498Z,8.15
2023-05-14T15:24:44.664Z,8.57
2023-05-14T15:27:12.018Z,7.43
2023-05-14T15:29:39.636Z,6.70
2023-05-14T15:32:07.130Z,6.78
2023-05-14T15:34:34.266Z,6.55
2023-05-14T15:37:01.497Z,7.18
2023-05-14T15:39:30.182Z,7.38
2023-05-14T15:41:57.589Z,7.00
2023-05-14T15:44:24.831Z,6.75
2023-05-14T15:46:52.179Z,7.45
2023-05-14T15:49:19.516Z,7.60
2023-05-14T15:51:46.720Z,7.22
2023-05-14T15:54:13.883Z,7.85
2023-05-14T15:56:41.085Z,7.03
2023-05-14T15:59:08.254Z,6.97
2023-05-14T16:01:35.533Z,6.47
2023-05-14T16:04:02.848Z,7.15
2023-05-14T16:06:30.061Z,7.40
2023-05-14T16:08:57.276Z,7.78
2023-05-14T16:11:24.424Z,7.35
2023-05-14T16:13:51.710Z,7.72
2023-05-14T16:16:20.665Z,7.03
2023-05-14T16:18:47.919Z,6.00
2023-05-14T16:21:15.196Z,7.05
2023-05-14T16:23:42.409Z,6.55
2023-05-14T16:26:09.569Z,6.95
2023-05-14T16:28:36.741Z,6.60
2023-05-14T16:31:03.998Z,6.30
2023-05-14T16:33:31.216Z,5.72
2023-05-14T16:35:58.390Z,6.07
2023-05-14T16:38:25.962Z,7.47
2023-05-14T16:40:53.124Z,6.32
2023-05-14T16:43:20.259Z,6.25
2023-05-14T16:45:47.479Z,6.28
2023-05-14T16:48:14.699Z,6.53
2023-05-14T16:50:41.882Z,6.55
2023-05-14T16:53:09.216Z,5.85
2023-05-14T16:55:36.427Z,5.53
2023-05-14T16:58:03.675Z,6.00
2023-05-14T17:00:30.818Z,6.05
2023-05-14T17:02:58.071Z,5.30
2023-05-14T17:05:25.569Z,6.07
2023-05-14T17:07:52.882Z,6.13
2023-05-14T17:10:20.250Z,5.82
2023-05-14T17:12:47.401Z,6.55
2023-05-14T17:15:14.555Z,6.53
2023-05-14T17:17:41.964Z,5.80
2023-05-14T17:20:09.415Z,6.05
2023-05-14T17:22:36.683Z,5.95
2023-05-14T17:25:04.040Z,5.72
2023-05-14T17:27:33.308Z,6.07
2023-05-14T17:30:01.279Z,5.43
2023-05-14T17:32:29.553Z,6.13
2023-05-14T17:34:56.979Z,6.38
2023-05-14T17:37:24.538Z,6.65
2023-05-14T17:39:51.824Z,5.78
2023-05-14T17:42:19.391Z,6.10
2023-05-14T17:44:46.603Z,5.47
2023-05-14T17:47:13.835Z,6.15
2023-05-14T17:49:41.031Z,5.93
2023-05-14T17:52:08.337Z,6.15
2023-05-14T17:54:35.504Z,5.68
2023-05-14T17:57:02.693Z,6.15
2023-05-14T17:59:29.889Z,6.20
2023-05-14T18:01:57.064Z,7.20
2023-05-14T18:04:24.316Z,6.55
2023-05-14T18:06:51.569Z,6.40
2023-05-14T18:09:18.722Z,6.30
2023-05-14T18:11:45.894Z,6.32
2023-05-14T18:14:13.108Z,5.93
2023-05-14T18:16:40.500Z,6.28
2023-05-14T18:19:07.834Z,6.43
2023-05-14T18:21:35.020Z,6.50
2023-05-14T18:24:02.202Z,6.82
2023-05-14T18:26:29.942Z,6.90
2023-05-14T18:28:58.599Z,6.40
2023-05-14T18:31:27.739Z,6.45
2023-05-14T18:33:55.154Z,6.72
2023-05-14T18:36:22.379Z,6.35
2023-05-14T18:38:49.614Z,7.10
2023-05-14T18:41:16.796Z,6.18
2023-05-14T18:43:44.124Z,6.53
2023-05-14T18:46:12.301Z,6.32
2023-05-14T18:48:39.565Z,6.25
2023-05-14T18:51:07.096Z,6.18
2023-05-14T18:53:34.253Z,6.28
2023-05-14T18:56:01.460Z,6.55
2023-05-14T18:58:28.623Z,6.40
2023-05-14T19:00:57.865Z,5.60
2023-05-14T19:03:25.354Z,6.95
2023-05-14T19:05:53.458Z,5.82
2023-05-14T19:08:20.781Z,6.22
2023-05-14T19:10:48.477Z,6.40
2023-05-14T19:13:18.470Z,6.45
2023-05-14T19:15:45.806Z,6.97
2023-05-14T19:18:15.734Z,6.47
2023-05-14T19:20:43.056Z,6.03
2023-05-14T19:23:11.697Z,6.60
2023-05-14T19:25:38.867Z,6.10
2023-05-14T19:28:06.136Z,6.60
2023-05-14T19:30:33.342Z,5.80
2023-05-14T19:33:00.568Z,6.00
2023-05-14T19:35:27.784Z,5.95
2023-05-14T19:37:55.027Z,6.53
2023-05-14T19:40:22.180Z,6.50
2023-05-14T19:42:49.380Z,6.47
2023-05-14T19:45:16.564Z,6.30
2023-05-14T19:47:43.838Z,6.35
2023-05-14T19:50:11.380Z,6.38
2023-05-14T19:52:38.557Z,5.68
2023-05-14T19:55:05.930Z,5.97
2023-05-14T19:57:33.167Z,6.40
2023-05-14T20:00:00.373Z,7.00
2023-05-14T20:02:27.630Z,7.10
2023-05-14T20:04:56.666Z,7.32
2023-05-14T20:07:25.023Z,6.78
2023-05-14T20:09:52.231Z,7.30
2023-05-14T20:12:19.389Z,6.88
2023-05-14T20:14:46.534Z,6.88
2023-05-14T20:17:13.772Z,6.80
2023-05-14T20:19:41.308Z,6.78
2023-05-14T20:22:08.602Z,6.93
2023-05-14T20:24:35.774Z,6.53
2023-05-14T20:27:03.001Z,6.97
2023-05-14T20:29:30.236Z,7.00
2023-05-14T20:31:57.565Z,6.57
2023-05-14T20:34:24.962Z,7.25
2023-05-14T20:36:52.238Z,7.18
2023-05-14T20:39:19.449Z,6.78
2023-05-14T20:41:46.606Z,6.57
2023-05-14T20:44:13.741Z,6.22
2023-05-14T20:46:41.096Z,6.53
2023-05-14T20:49:08.271Z,6.07
2023-05-14T20:51:35.474Z,6.47
2023-05-14T20:54:02.805Z,7.13
2023-05-14T20:56:30.355Z,6.22
2023-05-14T20:58:57.543Z,6.97
2023-05-14T21:01:24.778Z,5.70
2023-05-14T21:03:52.160Z,5.43
2023-05-14T21:06:19.572Z,6.13
2023-05-14T21:08:46.772Z,6.22
2023-05-14T21:11:14.314Z,5.82
2023-05-14T21:13:41.504Z,6.75
2023-05-14T21:16:08.980Z,6.07
2023-05-14T21:18:36.594Z,7.07
2023-05-14T21:21:03.840Z,5.97
2023-05-14T21:23:31.055Z,6.00
2023-05-14T21:25:58.270Z,6.10
2023-05-14T21:28:25.614Z,5.18
2023-05-14T21:30:53.004Z,6.30
2023-05-14T21:33:20.207Z,6.43
2023-05-14T21:35:47.424Z,6.20
2023-05-14T21:38:14.633Z,6.20
2023-05-14T21:40:41.826Z,5.75
2023-05-14T21:43:09.022Z,6.93
2023-05-14T21:45:36.224Z,6.95
2023-05-14T21:48:03.463Z,5.90
2023-05-14T21:50:30.763Z,6.57
2023-05-14T21:52:57.959Z,6.05
2023-05-14T21:55:25.572Z,6.95
2023-05-14T21:57:53.229Z,5.90
2023-05-14T22:00:24.029Z,6.40
2023-05-14T22:02:52.523Z,6.22
2023-05-14T22:05:20.067Z,6.65
2023-05-14T22:07:47.213Z,6.60
2023-05-14T22:10:15.209Z,6.53
2023-05-14T22:12:44.015Z,6.43
2023-05-14T22:15:11.703Z,5.95
2023-05-14T22:17:39.100Z,5.72
2023-05-14T22:20:07.091Z,5.78
2023-05-14T22:22:34.527Z,5.75
2023-05-14T22:25:01.712Z,5.57
2023-05-14T22:27:29.086Z,5.80
2023-05-14T22:29:56.344Z,5.53
2023-05-14T22:32:23.600Z,6.15
2023-05-14T22:34:50.862Z,5.65
2023-05-14T22:37:18.432Z,6.15
2023-05-14T22:39:45.582Z,5.55
2023-05-14T22:42:13.285Z,5.85
2023-05-14T22:44:40.484Z,5.30
2023-05-14T22:47:07.760Z,6.13
2023-05-14T22:49:34.941Z,5.20
2023-05-14T22:52:02.162Z,5.10
2023-05-14T22:54:29.368Z,5.28
2023-05-14T22:56:56.541Z,5.70
2023-05-14T22:59:24.053Z,6.03
2023-05-14T23:01:51.324Z,5.25
2023-05-14T23:04:18.546Z,4.90
2023-05-14T23:06:45.803Z,5.22
2023-05-14T23:09:12.946Z,5.38
2023-05-14T23:11:40.115Z,5.93
2023-05-14T23:14:07.275Z,5.57
2023-05-14T23:16:34.468Z,4.82
2023-05-14T23:19:01.769Z,4.80
2023-05-14T23:21:29.026Z,5.03
2023-05-14T23:23:56.242Z,5.70
2023-05-14T23:26:23.394Z,5.43
2023-05-14T23:28:51.152Z,4.82
2023-05-14T23:31:18.371Z,5.53
2023-05-14T23:33:46.332Z,4.97
2023-05-14T23:36:13.671Z,5.22
2023-05-14T23:38:40.899Z,5.30
2023-05-14T23:41:08.133Z,4.47
2023-05-14T23:43:35.342Z,5.53
2023-05-14T23:46:02.712Z,5.32
2023-05-14T23:48:29.977Z,4.80
2023-05-14T23:50:57.148Z,4.97
2023-05-14T23:53:24.345Z,4.95
2023-05-14T23:55:51.579Z,5.43
2023-05-14T23:58:18.814Z,4.68
